Time;durP1;ratioP1;P1;durP2;ratioP2;P2;SDS_P1;SDS_P2;PMS_P1;PMS_P2;Temp;Humidity;BMP_temperature;BMP_pressure;BME280_temperature;BME280_humidity;BME280_pressure;Samples;Min_cycle;Max_cycle;Signal;HPM_P1;HPM_P2
2022/04/20 00:04:57;;;;;;;8.63;3.33;;;;;10.80;100865.00;;;;10536924;28;20535;-76
2022/04/20 00:09:59;;;;;;;6.30;4.00;;;;;10.70;100865.00;;;;10486341;28;20685;-76
2022/04/20 00:15:02;;;;;;;6.50;3.53;;;;;10.70;100858.00;;;;10519540;28;20181;-77
2022/04/20 00:20:05;;;;;;;5.23;3.57;;;;;10.60;100857.00;;;;10544163;28;20195;-76
2022/04/20 00:25:07;;;;;;;5.60;3.67;;;;;10.50;100856.00;;;;10545527;28;20200;-76
2022/04/20 00:30:11;;;;;;;4.10;3.30;;;;;10.40;100861.00;;;;10543679;28;20329;-77
2022/04/20 00:35:13;;;;;;;5.10;3.50;;;;;10.30;100859.00;;;;10526978;28;20265;-77
2022/04/20 00:40:15;;;;;;;4.37;3.83;;;;;10.20;100865.00;;;;10560525;28;20278;-77
2022/04/20 00:45:17;;;;;;;5.90;3.87;;;;;10.10;100861.00;;;;10527102;28;20242;-76
2022/04/20 00:50:21;;;;;;;6.03;3.67;;;;;10.00;100870.00;;;;10526857;28;20684;-76
2022/04/20 00:55:23;;;;;;;5.70;4.00;;;;;9.90;100869.00;;;;10500733;28;20217;-75
2022/04/20 01:00:27;;;;;;;5.13;3.70;;;;;9.80;100868.00;;;;10485387;28;20238;-77
2022/04/20 01:05:31;;;;;;;4.67;4.10;;;;;9.80;100867.00;;;;10524484;28;20199;-77
2022/04/20 01:11:02;;;;;;;5.70;3.63;;;;;9.70;100872.00;;;;10523681;28;20566;-76
2022/04/20 01:16:33;;;;;;;4.40;3.53;;;;;9.70;100868.00;;;;10565763;28;20688;-77
2022/04/20 01:21:49;;;;;;;5.67;3.60;;;;;9.60;100859.00;;;;10527522;28;20195;-77
2022/04/20 01:27:10;;;;;;;4.43;3.83;;;;;9.60;100866.00;;;;10546996;28;20188;-77
2022/04/20 01:32:44;;;;;;;5.30;3.83;;;;;9.50;100865.00;;;;10529445;28;20279;-77
2022/04/20 01:37:52;;;;;;;4.27;3.40;;;;;9.40;100858.00;;;;10543888;28;20547;-77
2022/04/20 01:42:54;;;;;;;5.47;3.40;;;;;9.40;100856.00;;;;10509997;28;20689;-77
2022/04/20 01:47:56;;;;;;;4.43;3.70;;;;;9.30;100851.00;;;;10543148;28;20659;-76
2022/04/20 01:53:22;;;;;;;6.30;4.03;;;;;9.30;100856.00;;;;10549424;28;20203;-77
2022/04/20 01:58:46;;;;;;;6.53;3.73;;;;;9.30;100853.00;;;;10585227;28;20210;-76
2022/04/20 02:03:56;;;;;;;4.23;3.63;;;;;9.20;100852.00;;;;10566765;28;20580;-77
2022/04/20 02:08:58;;;;;;;7.60;3.80;;;;;9.20;100861.00;;;;10542605;28;20279;-77
2022/04/20 02:14:19;;;;;;;4.87;3.93;;;;;9.10;100860.00;;;;10562934;28;20271;-77
2022/04/20 02:19:28;;;;;;;4.47;3.63;;;;;9.00;100862.00;;;;10534705;28;20196;-77
2022/04/20 02:24:34;;;;;;;6.20;3.87;;;;;9.00;100856.00;;;;10567632;27;20199;-77
2022/04/20 02:29:38;;;;;;;7.10;3.90;;;;;8.90;100846.00;;;;10564799;28;20242;-76
2022/04/20 02:34:40;;;;;;;4.67;3.83;;;;;8.80;100857.00;;;;10533254;28;20188;-77
2022/04/20 02:39:44;;;;;;;5.40;3.70;;;;;8.70;100861.00;;;;10515790;28;20571;-76
2022/04/20 02:44:46;;;;;;;6.40;3.87;;;;;8.60;100858.00;;;;10549359;28;20196;-77
2022/04/20 02:49:48;;;;;;;7.53;3.80;;;;;8.60;100865.00;;;;10566137;28;20532;-77
2022/04/20 02:54:49;;;;;;;6.93;4.07;;;;;8.60;100870.00;;;;10506790;28;20660;-77
2022/04/20 02:59:52;;;;;;;4.93;4.10;;;;;8.50;100874.00;;;;10523151;28;20216;-77
2022/04/20 03:04:54;;;;;;;7.87;4.77;;;;;8.40;100870.00;;;;10546309;27;20196;-77
2022/04/20 03:09:56;;;;;;;5.43;3.90;;;;;8.40;100872.00;;;;10624389;27;20192;-77
2022/04/20 03:15:03;;;;;;;7.87;4.30;;;;;8.30;100881.00;;;;10602348;27;20198;-76
2022/04/20 03:20:06;;;;;;;5.53;4.20;;;;;8.20;100883.00;;;;10522248;28;20237;-77
2022/04/20 03:25:08;;;;;;;5.40;3.90;;;;;8.10;100884.00;;;;10544109;28;20678;-77
2022/04/20 03:30:27;;;;;;;5.57;3.80;;;;;8.00;100891.00;;;;10554930;28;20199;-77
2022/04/20 03:35:29;;;;;;;5.20;3.80;;;;;7.90;100894.00;;;;10530384;28;20197;-76
2022/04/20 03:40:31;;;;;;;7.57;4.40;;;;;7.80;100895.00;;;;10520516;28;20654;-76
2022/04/20 03:45:33;;;;;;;5.10;4.13;;;;;7.70;100893.00;;;;10487898;28;20869;-76
2022/04/20 03:50:38;;;;;;;5.57;4.37;;;;;7.60;100899.00;;;;10532846;27;20199;-76
2022/04/20 03:55:40;;;;;;;6.37;4.43;;;;;7.50;100907.00;;;;10544834;28;20265;-77
2022/04/20 04:00:43;;;;;;;7.10;3.87;;;;;7.40;100920.00;;;;10529313;28;20195;-77
2022/04/20 04:05:46;;;;;;;5.60;4.17;;;;;7.40;100915.00;;;;10545181;28;20180;-77
2022/04/20 04:10:54;;;;;;;5.20;3.73;;;;;7.30;100916.00;;;;10512908;28;20192;-77
2022/04/20 04:15:56;;;;;;;7.33;4.50;;;;;7.30;100920.00;;;;10511392;28;20208;-76
2022/04/20 04:21:01;;;;;;;6.10;4.50;;;;;7.30;100930.00;;;;10554947;27;20187;-77
2022/04/20 04:26:03;;;;;;;7.30;4.70;;;;;7.20;100936.00;;;;10570174;27;20183;-77
2022/04/20 04:31:12;;;;;;;6.90;4.50;;;;;7.20;100935.00;;;;10546675;28;20203;-76
2022/04/20 04:36:14;;;;;;;6.30;4.63;;;;;7.20;100940.00;;;;10528373;28;20204;-77
2022/04/20 04:41:22;;;;;;;9.10;4.93;;;;;7.30;100942.00;;;;10544338;28;20216;-77
2022/04/20 04:51:55;;;;;;;10.10;4.90;;;;;7.30;100935.00;;;;10555659;27;20219;-77
2022/04/20 04:56:58;;;;;;;7.70;4.00;;;;;7.30;100937.00;;;;10586959;27;20203;-77
2022/04/20 05:02:04;;;;;;;8.93;4.73;;;;;7.50;100944.00;;;;10536296;27;20204;-76
2022/04/20 05:07:07;;;;;;;7.23;3.93;;;;;7.90;100943.00;;;;10518810;28;20177;-77
2022/04/20 05:12:09;;;;;;;6.33;4.30;;;;;8.30;100953.00;;;;10536355;28;20275;-77
2022/04/20 05:17:13;;;;;;;6.20;3.70;;;;;8.60;100960.00;;;;10484565;28;20221;-77
2022/04/20 05:22:16;;;;;;;5.40;3.63;;;;;9.10;100969.00;;;;10499024;28;20208;-77
2022/04/20 05:27:19;;;;;;;6.30;3.67;;;;;9.80;100973.00;;;;10559474;28;20184;-77
2022/04/20 05:32:38;;;;;;;7.93;3.47;;;;;10.10;100985.00;;;;10525136;28;20199;-77
2022/04/20 05:43:23;;;;;;;7.37;4.13;;;;;9.90;100999.00;;;;10535883;28;20551;-77
2022/04/20 05:48:25;;;;;;;8.80;3.90;;;;;9.80;101010.00;;;;10524759;28;20200;-76
2022/04/20 05:53:29;;;;;;;4.47;3.77;;;;;9.90;101021.00;;;;10585825;27;20195;-76
2022/04/20 05:58:35;;;;;;;8.60;3.10;;;;;10.00;101004.00;;;;10500674;28;20547;-76
2022/04/20 06:03:37;;;;;;;7.67;3.50;;;;;10.20;101006.00;;;;10530337;27;20208;-77
2022/04/20 06:09:00;;;;;;;5.13;3.23;;;;;10.40;101005.00;;;;10524973;28;20192;-77
2022/04/20 06:14:33;;;;;;;6.67;3.60;;;;;10.60;101002.00;;;;10535044;28;20659;-77
2022/04/20 06:19:48;;;;;;;4.63;3.60;;;;;10.80;101003.00;;;;10544580;28;20208;-76
2022/04/20 06:24:58;;;;;;;6.23;3.53;;;;;10.90;101008.00;;;;10527328;27;20189;-77
2022/04/20 06:30:10;;;;;;;7.07;3.93;;;;;11.10;101009.00;;;;10540834;27;20184;-76
2022/04/20 06:35:35;;;;;;;6.10;3.60;;;;;11.30;101008.00;;;;10549394;28;20197;-76
2022/04/20 06:40:58;;;;;;;5.07;3.63;;;;;11.50;101017.00;;;;10507260;28;20906;-77
2022/04/20 06:46:26;;;;;;;8.90;3.40;;;;;11.80;101009.00;;;;10607254;27;20204;-77
2022/04/20 07:02:42;;;;;;;5.03;3.50;;;;;12.70;101012.00;;;;10534719;28;20249;-77
2022/04/20 07:07:53;;;;;;;7.10;3.60;;;;;13.00;101017.00;;;;10532200;28;20216;-77
2022/04/20 07:13:26;;;;;;;4.63;3.80;;;;;13.20;101016.00;;;;10577593;28;20591;-76
2022/04/20 07:18:28;;;;;;;3.20;2.90;;;;;13.40;101029.00;;;;10565577;28;20222;-76
2022/04/20 07:23:33;;;;;;;7.33;3.77;;;;;13.50;101030.00;;;;10548449;28;20257;-77
2022/04/20 07:28:44;;;;;;;7.53;4.00;;;;;13.70;101030.00;;;;10571889;27;20194;-76
2022/04/20 07:34:10;;;;;;;12.10;4.00;;;;;13.80;101027.00;;;;10566727;28;20195;-77
2022/04/20 07:39:26;;;;;;;4.50;3.93;;;;;14.00;101025.00;;;;10549197;28;20722;-76
2022/04/20 07:44:46;;;;;;;4.00;3.47;;;;;14.10;101025.00;;;;10565918;28;20270;-76
2022/04/20 07:55:31;;;;;;;6.03;3.60;;;;;14.40;101041.00;;;;10532238;28;20200;-77
2022/04/20 08:00:39;;;;;;;6.13;3.37;;;;;14.70;101039.00;;;;10567168;27;20204;-77
2022/04/20 08:06:00;;;;;;;5.93;3.33;;;;;14.90;101037.00;;;;10562911;28;20199;-78
2022/04/20 08:11:05;;;;;;;4.30;3.70;;;;;15.20;101043.00;;;;10533893;28;20197;-76
2022/04/20 08:16:08;;;;;;;5.13;3.57;;;;;15.40;101053.00;;;;10545723;28;20195;-76
2022/04/20 08:21:27;;;;;;;6.60;3.47;;;;;15.80;101063.00;;;;10548062;27;20196;-77
2022/04/20 08:26:29;;;;;;;6.27;4.07;;;;;15.90;101069.00;;;;10513160;28;20192;-77
2022/04/20 08:31:31;;;;;;;4.90;3.33;;;;;16.00;101062.00;;;;10536639;28;20197;-77
2022/04/20 08:36:36;;;;;;;4.30;3.60;;;;;16.00;101060.00;;;;10520207;28;20213;-77
2022/04/20 08:41:41;;;;;;;10.57;4.07;;;;;16.10;101068.00;;;;10513760;27;20550;-78
2022/04/20 08:46:45;;;;;;;7.30;3.53;;;;;16.20;101063.00;;;;10497150;28;20211;-77
2022/04/20 08:57:20;;;;;;;6.80;3.53;;;;;16.80;101065.00;;;;10533764;28;20290;-78
2022/04/20 09:02:24;;;;;;;4.67;3.70;;;;;17.30;101072.00;;;;10579893;28;20267;-78
2022/04/20 09:07:26;;;;;;;7.60;4.00;;;;;17.80;101060.00;;;;10510819;28;20196;-78
2022/04/20 09:12:28;;;;;;;7.27;3.60;;;;;18.10;101056.00;;;;10532112;27;20773;-78
2022/04/20 09:17:40;;;;;;;9.60;3.27;;;;;18.40;101045.00;;;;10554435;28;20200;-78
2022/04/20 09:22:56;;;;;;;7.83;3.80;;;;;18.70;101048.00;;;;10519495;27;20306;-78
2022/04/20 09:27:59;;;;;;;3.63;3.20;;;;;19.10;101030.00;;;;10524758;28;20183;-78
2022/04/20 09:33:06;;;;;;;7.07;3.38;;;;;19.60;101021.00;;;;10514793;28;20211;-78
2022/04/20 09:38:08;;;;;;;4.53;2.90;;;;;20.00;101033.00;;;;10515671;28;20570;-78
2022/04/20 09:43:27;;;;;;;6.60;3.40;;;;;20.40;101015.00;;;;10508299;28;20266;-77
2022/04/20 09:53:50;;;;;;;5.65;3.10;;;;;21.00;101018.00;;;;10544107;28;20651;-77
2022/04/20 09:59:10;;;;;;;4.03;3.17;;;;;21.00;101010.00;;;;10532603;28;20680;-80
2022/04/20 10:04:12;;;;;;;6.28;3.40;;;;;20.70;101008.00;;;;10540445;28;20241;-78
2022/04/20 10:09:15;;;;;;;9.50;3.20;;;;;21.10;101005.00;;;;10544341;28;20212;-79
2022/04/20 10:19:39;;;;;;;7.95;3.85;;;;;21.40;100994.00;;;;10554949;28;20577;-78
2022/04/20 10:24:48;;;;;;;6.07;3.50;;;;;21.40;100999.00;;;;10521930;28;20200;-78
2022/04/20 10:30:03;;;;;;;3.95;3.58;;;;;21.50;100988.00;;;;10520886;28;20666;-77
2022/04/20 10:35:06;;;;;;;7.63;3.30;;;;;22.10;100992.00;;;;10501557;28;20662;-78
2022/04/20 10:40:21;;;;;;;6.88;3.47;;;;;22.70;100981.00;;;;10494233;28;20240;-78
2022/04/20 10:46:00;;;;;;;5.50;2.85;;;;;22.90;100983.00;;;;10561020;27;20206;-79
2022/04/20 10:51:14;;;;;;;3.47;3.00;;;;;23.10;100974.00;;;;10560205;27;20188;-79
2022/04/20 10:56:18;;;;;;;6.88;3.60;;;;;23.30;100973.00;;;;10532110;28;20237;-78
2022/04/20 11:01:20;;;;;;;4.57;2.63;;;;;23.30;100977.00;;;;10525137;28;20628;-78
2022/04/20 11:06:26;;;;;;;6.95;2.60;;;;;23.30;100954.00;;;;10545768;28;20199;-78
2022/04/20 11:23:06;;;;;;;3.67;2.70;;;;;23.50;100953.00;;;;10479814;28;20200;-77
2022/04/20 11:28:08;;;;;;;6.78;3.05;;;;;23.90;100945.00;;;;10564379;28;20203;-78
2022/04/20 11:33:14;;;;;;;4.15;2.60;;;;;24.00;100942.00;;;;10548502;28;20202;-77
2022/04/20 11:38:16;;;;;;;6.75;2.97;;;;;24.00;100943.00;;;;10527541;28;20196;-77
2022/04/20 11:43:25;;;;;;;4.25;3.28;;;;;24.10;100932.00;;;;10530906;28;20200;-78
2022/04/20 11:48:54;;;;;;;5.50;3.15;;;;;23.80;100934.00;;;;10553793;27;20192;-77
2022/04/20 11:54:03;;;;;;;7.10;3.42;;;;;23.70;100931.00;;;;10535915;27;20188;-77
2022/04/20 11:59:27;;;;;;;6.03;3.60;;;;;23.70;100926.00;;;;10530761;28;20216;-77
2022/04/20 12:04:29;;;;;;;3.20;2.83;;;;;23.60;100929.00;;;;10524768;28;20200;-77
2022/04/20 12:09:35;;;;;;;5.03;2.83;;;;;24.10;100926.00;;;;10563430;28;20228;-79
2022/04/20 12:14:38;;;;;;;5.55;3.10;;;;;23.80;100921.00;;;;10545023;27;20200;-78
2022/04/20 12:19:41;;;;;;;4.50;3.08;;;;;24.00;100915.00;;;;10544825;27;20600;-77
2022/04/20 12:24:44;;;;;;;5.72;3.53;;;;;24.10;100901.00;;;;10505089;28;20610;-77
2022/04/20 12:29:54;;;;;;;7.35;3.25;;;;;24.40;100891.00;;;;10511709;28;20201;-77
2022/04/20 12:35:03;;;;;;;4.28;2.60;;;;;24.70;100892.00;;;;10539941;27;20207;-78
2022/04/20 12:40:23;;;;;;;3.75;2.85;;;;;24.30;100881.00;;;;10535931;28;20670;-79
2022/04/20 12:45:25;;;;;;;7.15;3.15;;;;;24.80;100874.00;;;;10547957;28;20197;-79
2022/04/20 12:50:34;;;;;;;3.95;2.63;;;;;25.40;100866.00;;;;10562181;28;20196;-78
2022/04/20 12:55:43;;;;;;;11.65;3.67;;;;;25.40;100869.00;;;;10524066;28;20197;-78
2022/04/20 13:06:10;;;;;;;4.20;3.42;;;;;23.90;100869.00;;;;10580152;27;20542;-78
2022/04/20 13:11:13;;;;;;;4.05;3.33;;;;;23.30;100851.00;;;;10564349;27;20188;-78
2022/04/20 13:16:35;;;;;;;4.40;3.15;;;;;23.90;100846.00;;;;10529039;28;20292;-78
2022/04/20 13:21:42;;;;;;;6.32;3.47;;;;;24.70;100821.00;;;;10528419;28;20208;-78
2022/04/20 13:32:04;;;;;;;6.65;3.70;;;;;24.40;100822.00;;;;10561158;28;20192;-78
2022/04/20 13:37:06;;;;;;;4.72;3.38;;;;;24.30;100823.00;;;;10542911;28;20205;-77
2022/04/20 13:42:08;;;;;;;6.38;3.50;;;;;26.50;100807.00;;;;10507949;28;20221;-77
2022/04/20 13:47:10;;;;;;;5.38;3.60;;;;;25.10;100809.00;;;;10539166;28;20196;-77
2022/04/20 13:52:12;;;;;;;5.07;3.80;;;;;25.60;100810.00;;;;10525805;28;20208;-77
2022/04/20 13:57:14;;;;;;;4.40;3.25;;;;;28.20;100802.00;;;;10568831;28;20226;-78
2022/04/20 14:02:16;;;;;;;5.93;3.97;;;;;28.40;100802.00;;;;10584882;28;20223;-77
2022/04/20 14:07:18;;;;;;;5.35;3.60;;;;;28.00;100813.00;;;;10561337;28;20226;-78
2022/04/20 14:12:22;;;;;;;4.00;3.55;;;;;27.90;100792.00;;;;10563796;28;20237;-78
2022/04/20 14:17:23;;;;;;;7.35;3.53;;;;;30.50;100797.00;;;;10493787;28;20267;-78
2022/04/20 14:22:26;;;;;;;4.32;3.60;;;;;31.40;100786.00;;;;10509504;28;20200;-78
2022/04/20 14:33:07;;;;;;;4.50;3.78;;;;;32.40;100785.00;;;;10595530;27;20191;-78
2022/04/20 14:38:08;;;;;;;6.03;4.30;;;;;32.60;100782.00;;;;10611401;27;20268;-78
2022/04/20 14:43:10;;;;;;;8.18;4.07;;;;;32.30;100776.00;;;;10595337;27;20188;-78
2022/04/20 14:48:12;;;;;;;4.25;3.33;;;;;32.30;100780.00;;;;10610641;27;20183;-77
2022/04/20 14:53:14;;;;;;;3.90;3.50;;;;;31.80;100767.00;;;;10577004;27;20199;-78
2022/04/20 14:58:17;;;;;;;4.22;3.40;;;;;31.50;100768.00;;;;10566802;28;20247;-78
2022/04/20 15:03:19;;;;;;;4.60;3.55;;;;;31.40;100771.00;;;;10551171;28;20235;-78
2022/04/20 15:08:22;;;;;;;4.70;3.55;;;;;26.80;100796.00;;;;10551294;28;20216;-77
2022/04/20 15:13:25;;;;;;;9.07;3.55;;;;;23.60;100792.00;;;;10567431;28;20226;-78
2022/04/20 15:18:35;;;;;;;7.13;3.92;;;;;23.00;100784.00;;;;10534810;28;20216;-77
2022/04/20 15:23:39;;;;;;;4.72;4.25;;;;;22.40;100789.00;;;;10591812;27;20226;-78
2022/04/20 15:28:44;;;;;;;4.72;4.22;;;;;21.20;100796.00;;;;10555902;27;20196;-78
2022/04/20 15:33:46;;;;;;;5.15;4.47;;;;;20.70;100782.00;;;;10531931;28;20196;-77
2022/04/20 15:38:49;;;;;;;4.65;4.00;;;;;20.60;100773.00;;;;10545088;28;20232;-78
2022/04/20 15:43:51;;;;;;;5.38;4.35;;;;;20.70;100775.00;;;;10507803;28;20200;-78
2022/04/20 15:48:53;;;;;;;6.90;4.13;;;;;20.60;100771.00;;;;10524792;28;20200;-77
2022/04/20 15:53:55;;;;;;;6.90;4.65;;;;;20.20;100768.00;;;;10579236;27;20646;-78
2022/04/20 16:04:17;;;;;;;8.40;5.18;;;;;20.60;100766.00;;;;10565737;27;20225;-78
2022/04/20 16:09:19;;;;;;;7.70;4.70;;;;;20.10;100769.00;;;;10548787;28;20180;-78
2022/04/20 16:14:21;;;;;;;7.43;4.28;;;;;19.70;100764.00;;;;10506809;28;20205;-78
2022/04/20 16:19:23;;;;;;;6.22;4.50;;;;;19.50;100764.00;;;;10506156;28;20213;-77
2022/04/20 16:24:26;;;;;;;6.28;4.82;;;;;19.20;100763.00;;;;10580686;27;20719;-77
2022/04/20 16:29:29;;;;;;;5.03;4.45;;;;;19.00;100765.00;;;;10557178;27;20240;-78
2022/04/20 16:34:32;;;;;;;6.30;3.78;;;;;18.90;100760.00;;;;10572673;27;20263;-78
2022/04/20 16:39:36;;;;;;;11.32;4.15;;;;;18.70;100749.00;;;;10606040;27;20251;-78
2022/04/20 16:44:38;;;;;;;9.23;4.32;;;;;18.60;100747.00;;;;10588520;27;20576;-77
2022/04/20 16:49:40;;;;;;;4.53;3.92;;;;;18.40;100742.00;;;;10564023;27;20670;-78
2022/04/20 16:54:43;;;;;;;6.38;3.92;;;;;18.30;100740.00;;;;10564389;27;20199;-77
2022/04/20 16:59:44;;;;;;;5.03;3.58;;;;;18.20;100727.00;;;;10549241;28;20662;-77
2022/04/20 17:04:46;;;;;;;8.65;4.07;;;;;18.10;100730.00;;;;10557537;27;20717;-77
2022/04/20 17:09:48;;;;;;;9.53;4.17;;;;;18.00;100733.00;;;;10588437;27;20190;-77
2022/04/20 17:14:50;;;;;;;6.57;4.27;;;;;17.90;100736.00;;;;10554178;27;20191;-77
2022/04/20 17:19:52;;;;;;;4.83;4.03;;;;;17.80;100736.00;;;;10604770;27;20287;-78
2022/04/20 17:30:20;;;;;;;7.63;4.00;;;;;17.60;100735.00;;;;10576189;28;20191;-77
2022/04/20 17:40:42;;;;;;;6.60;4.13;;;;;17.30;100726.00;;;;10502809;28;20224;-77
2022/04/20 17:45:46;;;;;;;6.80;4.30;;;;;17.10;100727.00;;;;10487251;28;20647;-77
2022/04/20 17:50:48;;;;;;;8.57;4.37;;;;;17.00;100729.00;;;;10482840;27;20532;-77
2022/04/20 17:55:49;;;;;;;9.77;4.63;;;;;16.80;100732.00;;;;10572763;27;20210;-77
2022/04/20 18:00:52;;;;;;;9.30;4.40;;;;;16.60;100738.00;;;;10552048;28;20236;-78
2022/04/20 18:05:55;;;;;;;5.57;4.57;;;;;16.50;100731.00;;;;10569215;28;20245;-78
2022/04/20 18:10:57;;;;;;;5.83;4.23;;;;;16.30;100732.00;;;;10569050;28;20696;-77
2022/04/20 18:15:59;;;;;;;5.70;4.30;;;;;16.10;100727.00;;;;10551856;28;20200;-77
2022/04/20 18:21:01;;;;;;;8.33;4.37;;;;;15.90;100741.00;;;;10564708;28;20219;-77
2022/04/20 18:26:03;;;;;;;6.40;4.37;;;;;15.70;100749.00;;;;10543816;28;20705;-78
2022/04/20 18:31:05;;;;;;;5.40;3.60;;;;;15.40;100738.00;;;;10548941;28;20191;-77
2022/04/20 18:36:08;;;;;;;10.43;4.27;;;;;15.20;100739.00;;;;10551414;28;20219;-78
2022/04/20 18:41:10;;;;;;;10.23;4.70;;;;;15.00;100738.00;;;;10550896;28;20216;-77
2022/04/20 18:46:12;;;;;;;9.30;4.40;;;;;14.80;100742.00;;;;10535334;28;20226;-78
2022/04/20 18:51:15;;;;;;;10.63;4.77;;;;;14.60;100739.00;;;;10504646;27;20198;-77
2022/04/20 19:01:39;;;;;;;5.90;4.67;;;;;14.20;100750.00;;;;10550536;28;20265;-77
2022/04/20 19:06:41;;;;;;;5.97;4.43;;;;;13.90;100742.00;;;;10551276;28;20259;-77
2022/04/20 19:11:44;;;;;;;6.97;4.70;;;;;13.70;100746.00;;;;10517088;28;20567;-76
2022/04/20 19:16:47;;;;;;;8.97;4.90;;;;;13.50;100746.00;;;;10567230;28;20963;-77
2022/04/20 19:21:49;;;;;;;9.87;4.87;;;;;13.30;100759.00;;;;10561261;27;20260;-77
2022/04/20 19:26:52;;;;;;;15.00;4.57;;;;;13.20;100760.00;;;;10605359;27;20188;-77
2022/04/20 19:31:54;;;;;;;8.83;4.63;;;;;13.10;100772.00;;;;10549704;28;20237;-77
2022/04/20 19:36:56;;;;;;;5.23;4.33;;;;;13.10;100773.00;;;;10549157;28;20238;-78
2022/04/20 19:41:58;;;;;;;9.03;4.30;;;;;12.90;100779.00;;;;10565784;28;20220;-77
2022/04/20 19:47:00;;;;;;;7.17;4.73;;;;;12.80;100774.00;;;;10548890;28;20567;-77
2022/04/20 19:52:03;;;;;;;8.13;5.33;;;;;12.70;100777.00;;;;10544748;27;20257;-77
2022/04/20 19:57:05;;;;;;;8.80;5.90;;;;;12.60;100782.00;;;;10574357;27;20200;-78
2022/04/20 20:02:09;;;;;;;9.87;5.60;;;;;12.50;100788.00;;;;10520908;28;20745;-78
2022/04/20 20:07:11;;;;;;;9.40;5.53;;;;;12.50;100783.00;;;;10548080;28;20616;-77
2022/04/20 20:12:19;;;;;;;11.43;5.90;;;;;12.50;100790.00;;;;10513099;28;20192;-78
2022/04/20 20:17:22;;;;;;;11.40;6.87;;;;;12.50;100785.00;;;;10547521;28;20709;-78
2022/04/20 20:22:24;;;;;;;8.73;5.37;;;;;12.50;100775.00;;;;10546256;27;20492;-77
2022/04/20 20:30:03;;;;;;;7.93;6.30;;;;;12.50;100777.00;;;;10589539;27;20195;-77
2022/04/20 20:33:02;;;;;;;12.73;6.23;;;;;12.50;100777.00;;;;10538536;28;20196;-77
2022/04/20 20:38:04;;;;;;;7.67;6.00;;;;;12.50;100781.00;;;;10538218;28;20250;-77
2022/04/20 20:43:06;;;;;;;9.93;5.83;;;;;12.30;100783.00;;;;10489161;28;20217;-77
2022/04/20 20:48:08;;;;;;;7.90;6.10;;;;;12.20;100783.00;;;;10516291;28;20716;-77
2022/04/20 20:53:13;;;;;;;9.33;5.17;;;;;12.10;100787.00;;;;10508361;28;20197;-77
2022/04/20 20:58:14;;;;;;;10.27;5.40;;;;;12.00;100782.00;;;;10514084;28;20282;-76
2022/04/20 21:03:16;;;;;;;7.60;5.67;;;;;11.90;100779.00;;;;10545890;28;20200;-77
2022/04/20 21:08:18;;;;;;;11.73;6.57;;;;;11.80;100765.00;;;;10545571;28;20184;-77
2022/04/20 21:13:20;;;;;;;8.77;5.67;;;;;11.70;100775.00;;;;10512761;28;20199;-76
2022/04/20 21:18:22;;;;;;;8.50;6.33;;;;;11.70;100774.00;;;;10512633;28;20212;-77
2022/04/20 21:23:24;;;;;;;12.40;6.00;;;;;11.60;100781.00;;;;10553304;27;20222;-77
2022/04/20 21:28:26;;;;;;;10.03;5.47;;;;;11.50;100779.00;;;;10554002;28;20192;-77
2022/04/20 21:33:28;;;;;;;9.07;5.93;;;;;11.50;100775.00;;;;10544887;28;20674;-77
2022/04/20 21:38:30;;;;;;;9.53;5.87;;;;;11.40;100778.00;;;;10562394;28;20208;-77
2022/04/20 21:43:32;;;;;;;10.03;5.77;;;;;11.40;100774.00;;;;10545678;28;20261;-77
2022/04/20 21:48:37;;;;;;;9.20;4.97;;;;;11.30;100773.00;;;;10528398;28;20192;-76
2022/04/20 21:53:39;;;;;;;7.27;5.47;;;;;11.20;100781.00;;;;10561301;28;20203;-76
2022/04/20 21:58:41;;;;;;;9.60;5.40;;;;;11.00;100779.00;;;;10544460;28;20231;-76
2022/04/20 22:09:06;;;;;;;9.20;5.80;;;;;10.90;100783.00;;;;10527786;28;20257;-76
2022/04/20 22:14:09;;;;;;;12.20;5.73;;;;;10.90;100781.00;;;;10561295;28;20259;-76
2022/04/20 22:19:11;;;;;;;8.23;4.80;;;;;10.80;100772.00;;;;10527355;28;20718;-77
2022/04/20 22:24:15;;;;;;;7.37;5.10;;;;;10.70;100777.00;;;;10559376;28;20646;-77
2022/04/20 22:29:17;;;;;;;7.83;5.63;;;;;10.60;100772.00;;;;10579293;28;20195;-78
2022/04/20 22:34:19;;;;;;;7.37;5.07;;;;;10.50;100769.00;;;;10532242;28;20265;-76
2022/04/20 22:39:22;;;;;;;9.57;5.47;;;;;10.40;100770.00;;;;10551214;28;20212;-76
2022/04/20 22:44:24;;;;;;;7.47;4.83;;;;;10.40;100771.00;;;;10534813;28;20720;-76
2022/04/20 22:49:28;;;;;;;8.87;5.43;;;;;10.30;100758.00;;;;10551487;28;20192;-76
2022/04/20 22:54:31;;;;;;;8.47;5.47;;;;;10.30;100766.00;;;;10551423;27;20203;-77
2022/04/20 22:59:33;;;;;;;10.10;5.60;;;;;10.20;100754.00;;;;10576398;27;20302;-77
2022/04/20 23:04:35;;;;;;;8.07;5.17;;;;;10.10;100757.00;;;;10505820;28;20209;-77
2022/04/20 23:09:37;;;;;;;8.50;5.13;;;;;10.00;100755.00;;;;10508321;28;20189;-77
2022/04/20 23:14:39;;;;;;;8.93;4.97;;;;;10.00;100763.00;;;;10524578;28;20255;-77
2022/04/20 23:19:41;;;;;;;8.27;4.87;;;;;9.90;100765.00;;;;10474590;28;20209;-77
2022/04/20 23:30:04;;;;;;;6.83;5.20;;;;;9.80;100747.00;;;;10579963;27;20656;-77
2022/04/20 23:35:06;;;;;;;9.23;4.83;;;;;9.70;100738.00;;;;10532710;28;20200;-77
2022/04/20 23:40:09;;;;;;;9.77;4.93;;;;;9.60;100744.00;;;;10565580;28;20282;-77
2022/04/20 23:45:11;;;;;;;8.53;5.73;;;;;9.50;100755.00;;;;10531413;28;20665;-77
2022/04/20 23:50:21;;;;;;;12.43;5.37;;;;;9.40;100738.00;;;;10548406;28;20192;-77
2022/04/20 23:55:23;;;;;;;9.20;5.50;;;;;9.30;100743.00;;;;10582068;28;20750;-76
